createdAt,value
2022-10-27T16:24:18.248Z,17.10
2022-10-27T16:27:23.768Z,17.05
2022-10-27T16:30:25.820Z,17.00
2022-10-27T16:33:27.395Z,16.95
2022-10-27T16:36:29.109Z,16.89
2022-10-27T16:39:30.664Z,16.82
2022-10-27T16:42:32.538Z,16.69
2022-10-27T16:45:34.166Z,16.60
2022-10-27T16:48:37.881Z,16.45
2022-10-27T16:51:41.592Z,16.44
2022-10-27T16:54:43.320Z,16.36
2022-10-27T16:57:48.752Z,16.33
2022-10-27T17:00:51.715Z,16.28
2022-10-27T17:03:53.367Z,16.24
2022-10-27T17:06:55.063Z,16.20
2022-10-27T17:09:57.184Z,16.14
2022-10-27T17:12:59.439Z,16.11
2022-10-27T17:16:05.719Z,16.02
2022-10-27T17:19:07.303Z,16.00
2022-10-27T17:22:08.842Z,15.95
2022-10-27T17:25:10.536Z,15.91
2022-10-27T17:28:12.059Z,15.83
2022-10-27T17:31:18.068Z,15.74
2022-10-27T17:34:26.918Z,15.66
2022-10-27T17:37:28.692Z,15.61
2022-10-27T17:40:30.203Z,15.56
2022-10-27T17:43:36.151Z,15.48
2022-10-27T17:46:41.723Z,15.42
2022-10-27T17:49:43.271Z,15.35
2022-10-27T17:52:44.753Z,15.39
2022-10-27T17:55:46.292Z,15.35
2022-10-27T17:58:49.302Z,15.33
2022-10-27T18:01:51.127Z,15.26
2022-10-27T18:04:54.055Z,15.14
2022-10-27T18:07:55.749Z,15.10
2022-10-27T18:11:15.152Z,15.04
2022-10-27T18:14:20.464Z,14.98
2022-10-27T18:17:22.044Z,14.92
2022-10-27T18:20:23.662Z,14.83
2022-10-27T18:23:25.205Z,14.71
2022-10-27T18:26:28.785Z,14.61
2022-10-27T18:29:32.226Z,14.57
2022-10-27T18:32:33.847Z,14.47
2022-10-27T18:35:35.582Z,14.43
2022-10-27T18:38:37.459Z,14.42
2022-10-27T18:41:39.084Z,14.43
2022-10-27T18:44:40.756Z,14.39
2022-10-27T18:47:44.533Z,14.30
2022-10-27T18:50:54.685Z,14.22
2022-10-27T18:53:59.189Z,14.17
2022-10-27T18:57:00.730Z,14.12
2022-10-27T19:00:02.376Z,14.07
2022-10-27T19:03:04.000Z,14.03
2022-10-27T19:06:07.863Z,14.01
2022-10-27T19:09:11.071Z,14.00
2022-10-27T19:12:12.870Z,13.92
2022-10-27T19:15:14.616Z,13.89
2022-10-27T19:18:16.210Z,13.92
2022-10-27T19:21:20.240Z,13.91
2022-10-27T19:24:21.789Z,13.90
2022-10-27T19:27:23.453Z,13.85
2022-10-27T19:30:25.173Z,13.74
2022-10-27T19:33:26.993Z,13.73
2022-10-27T19:36:31.405Z,13.72
2022-10-27T19:39:33.340Z,13.69
2022-10-27T19:42:36.052Z,13.63
2022-10-27T19:45:37.715Z,13.60
2022-10-27T19:48:40.308Z,13.56
2022-10-27T19:51:42.567Z,13.53
2022-10-27T19:54:44.790Z,13.52
2022-10-27T19:57:46.597Z,13.42
2022-10-27T20:00:48.292Z,13.32
2022-10-27T20:03:50.118Z,13.30
2022-10-27T20:06:51.716Z,13.29
2022-10-27T20:09:53.257Z,13.30
2022-10-27T20:12:55.279Z,13.32
2022-10-27T20:16:02.681Z,13.21
2022-10-27T20:19:12.654Z,13.20
2022-10-27T20:22:14.277Z,13.14
2022-10-27T20:25:15.811Z,13.03
2022-10-27T20:28:17.391Z,13.00
2022-10-27T20:31:19.198Z,13.00
2022-10-27T20:34:21.072Z,12.93
2022-10-27T20:37:22.570Z,12.99
2022-10-27T20:40:24.185Z,13.01
2022-10-27T20:43:25.696Z,13.05
2022-10-27T20:46:29.682Z,13.03
2022-10-27T20:49:31.192Z,12.98
2022-10-27T20:52:32.950Z,12.94
2022-10-27T20:55:34.409Z,12.84
2022-10-27T20:58:40.746Z,12.81
2022-10-27T21:01:43.401Z,12.79
2022-10-27T21:04:45.053Z,12.82
2022-10-27T21:07:46.597Z,12.80
2022-10-27T21:10:48.115Z,12.80
2022-10-27T21:13:58.073Z,12.73
2022-10-27T21:16:59.632Z,12.71
2022-10-27T21:20:01.215Z,12.62
2022-10-27T21:23:02.942Z,12.57
2022-10-27T21:26:04.565Z,12.57
2022-10-27T21:29:06.244Z,12.55
2022-10-27T21:32:07.768Z,12.51
2022-10-27T21:35:09.668Z,12.49
2022-10-27T21:38:11.223Z,12.39
2022-10-27T21:41:14.635Z,12.42
2022-10-27T21:44:16.206Z,12.38
2022-10-27T21:47:17.743Z,12.37
2022-10-27T21:50:19.329Z,12.37
2022-10-27T21:53:21.485Z,12.37
2022-10-27T21:56:23.031Z,12.41
2022-10-27T21:59:24.610Z,12.40
2022-10-27T22:02:26.228Z,12.36
2022-10-27T22:05:27.718Z,12.39
2022-10-27T22:08:29.648Z,12.37
2022-10-27T22:11:34.437Z,12.33
2022-10-27T22:14:36.638Z,12.28
2022-10-27T22:17:38.248Z,12.27
2022-10-27T22:20:39.869Z,12.23
2022-10-27T22:23:42.281Z,12.25
2022-10-27T22:26:43.884Z,12.27
2022-10-27T22:29:45.433Z,12.26
2022-10-27T22:32:46.907Z,12.23
2022-10-27T22:35:48.516Z,12.30
2022-10-27T22:38:54.962Z,12.27
2022-10-27T22:41:56.577Z,12.28
2022-10-27T22:44:58.088Z,12.32
2022-10-27T22:47:59.593Z,12.35
2022-10-27T22:51:03.274Z,12.27
2022-10-27T22:54:04.816Z,12.26
2022-10-27T22:57:06.441Z,12.29
2022-10-27T23:00:08.958Z,12.36
2022-10-27T23:03:10.535Z,12.41
2022-10-27T23:06:12.235Z,12.45
2022-10-27T23:09:19.811Z,12.41
2022-10-27T23:12:21.381Z,12.41
2022-10-27T23:15:22.905Z,12.42
2022-10-27T23:18:25.379Z,12.44
2022-10-27T23:21:28.045Z,12.44
2022-10-27T23:24:29.617Z,12.45
2022-10-27T23:27:31.147Z,12.48
2022-10-27T23:30:34.144Z,12.51
2022-10-27T23:33:35.692Z,12.48
2022-10-27T23:36:39.220Z,12.48
2022-10-27T23:39:40.807Z,12.54
2022-10-27T23:42:42.328Z,12.55
2022-10-27T23:45:44.020Z,12.52
2022-10-27T23:48:46.019Z,12.48
2022-10-27T23:51:47.532Z,12.47
2022-10-27T23:54:49.048Z,12.46
2022-10-27T23:57:50.658Z,12.43
